Time;durP1;ratioP1;P1;durP2;ratioP2;P2;SDS_P1;SDS_P2;PMS_P1;PMS_P2;Temp;Humidity;BMP_temperature;BMP_pressure;BME280_temperature;BME280_humidity;BME280_pressure;Samples;Min_cycle;Max_cycle;Signal;HPM_P1;HPM_P2
2022/07/28 00:01:10;;;;;;;13.32;5.57;;;16.30;77.70;;;;;;4985164;28;20039;-74
2022/07/28 00:03:36;;;;;;;8.10;5.50;;;16.30;77.70;;;;;;4988426;28;20015;-73
2022/07/28 00:06:04;;;;;;;12.85;5.05;;;16.30;77.80;;;;;;4982233;28;20161;-73
2022/07/28 00:08:30;;;;;;;8.95;5.10;;;16.30;77.80;;;;;;4982845;28;20485;-74
2022/07/28 00:10:57;;;;;;;10.52;5.47;;;16.30;77.70;;;;;;4983958;28;20023;-72
2022/07/28 00:13:23;;;;;;;14.13;6.72;;;16.30;77.80;;;;;;4986420;28;20019;-72
2022/07/28 00:15:50;;;;;;;14.82;6.88;;;16.20;77.60;;;;;;4981844;28;20416;-69
2022/07/28 00:18:16;;;;;;;10.38;5.57;;;16.20;77.60;;;;;;4981453;28;20121;-72
2022/07/28 00:20:43;;;;;;;16.48;5.57;;;16.20;77.60;;;;;;4978885;28;20023;-73
2022/07/28 00:23:09;;;;;;;19.52;7.00;;;16.20;77.50;;;;;;4984858;28;20077;-69
2022/07/28 00:25:36;;;;;;;23.33;6.45;;;16.20;77.50;;;;;;4989099;28;20106;-73
2022/07/28 00:28:02;;;;;;;18.95;6.45;;;16.20;77.50;;;;;;4986383;28;20030;-69
2022/07/28 00:30:29;;;;;;;18.75;6.32;;;16.30;77.90;;;;;;4985341;28;20034;-70
2022/07/28 00:32:55;;;;;;;10.27;4.78;;;16.30;78.00;;;;;;4986639;28;20835;-73
2022/07/28 00:35:22;;;;;;;15.45;5.15;;;16.30;78.30;;;;;;4984334;28;20030;-72
2022/07/28 00:37:48;;;;;;;11.55;4.60;;;16.30;78.40;;;;;;4980861;28;20085;-73
2022/07/28 00:40:16;;;;;;;11.18;5.32;;;16.30;78.40;;;;;;4982315;28;20042;-73
2022/07/28 00:42:42;;;;;;;12.25;4.10;;;16.20;78.30;;;;;;4981524;28;20035;-69
2022/07/28 00:45:09;;;;;;;11.18;5.22;;;16.20;78.50;;;;;;4986497;28;20054;-72
2022/07/28 00:47:36;;;;;;;14.27;3.75;;;16.20;78.50;;;;;;4980137;28;20015;-73
2022/07/28 00:50:04;;;;;;;12.30;3.60;;;16.20;78.60;;;;;;4986114;28;20385;-71
2022/07/28 00:52:32;;;;;;;7.97;2.83;;;16.20;78.80;;;;;;4988237;28;20018;-72
2022/07/28 00:54:59;;;;;;;7.05;2.80;;;16.20;78.90;;;;;;4982848;28;20057;-73
2022/07/28 00:57:25;;;;;;;5.97;2.90;;;16.20;79.10;;;;;;4983202;28;20018;-72
2022/07/28 00:59:52;;;;;;;10.98;3.45;;;16.20;79.30;;;;;;4984339;28;20019;-74
2022/07/28 01:02:19;;;;;;;7.15;2.75;;;16.10;79.30;;;;;;4983214;28;20027;-71
2022/07/28 01:04:46;;;;;;;14.73;4.15;;;16.20;79.40;;;;;;4980918;28;20114;-69
2022/07/28 01:07:31;;;;;;;7.03;2.75;;;16.20;79.60;;;;;;4980234;28;20046;-73
2022/07/28 01:10:19;;;;;;;5.03;2.42;;;16.20;79.70;;;;;;4983847;28;20034;-72
2022/07/28 01:13:18;;;;;;;31.23;3.05;;;16.10;79.80;;;;;;4981184;28;20033;-73
2022/07/28 01:15:54;;;;;;;7.18;2.65;;;16.20;80.10;;;;;;4943787;28;20079;-69
2022/07/28 01:18:25;;;;;;;11.23;3.78;;;16.10;80.20;;;;;;4983703;28;20559;-73
2022/07/28 01:21:04;;;;;;;10.15;2.70;;;16.10;80.20;;;;;;4983368;28;20061;-73
2022/07/28 01:23:46;;;;;;;8.07;3.03;;;16.10;80.20;;;;;;4986456;28;20474;-72
2022/07/28 01:26:37;;;;;;;11.75;3.65;;;16.10;80.30;;;;;;4982586;28;20512;-72
2022/07/28 01:29:25;;;;;;;8.63;2.70;;;16.10;80.40;;;;;;4988432;28;20033;-69
2022/07/28 01:32:05;;;;;;;11.57;2.55;;;16.10;80.50;;;;;;4981813;28;20420;-73
2022/07/28 01:34:47;;;;;;;7.68;2.50;;;16.10;80.70;;;;;;4982592;28;20031;-73
2022/07/28 01:37:19;;;;;;;13.73;4.20;;;16.10;80.70;;;;;;4979147;28;20054;-73
2022/07/28 01:39:50;;;;;;;5.22;2.45;;;16.10;80.80;;;;;;4981996;28;20119;-72
2022/07/28 01:42:17;;;;;;;8.73;2.50;;;16.00;80.90;;;;;;4981202;28;20080;-70
2022/07/28 01:44:47;;;;;;;9.25;2.30;;;16.00;80.80;;;;;;4980399;28;20409;-73
2022/07/28 01:47:15;;;;;;;8.15;2.60;;;16.10;81.10;;;;;;4984592;28;20053;-69
2022/07/28 01:49:45;;;;;;;4.30;2.20;;;16.10;81.00;;;;;;4985406;28;20373;-71
2022/07/28 01:52:13;;;;;;;13.73;2.70;;;16.00;80.80;;;;;;4981868;28;20054;-69
2022/07/28 01:54:44;;;;;;;8.50;2.90;;;16.00;80.80;;;;;;4986753;28;20080;-73
2022/07/28 01:57:15;;;;;;;13.50;3.50;;;16.00;80.80;;;;;;4985162;28;20027;-72
2022/07/28 01:59:43;;;;;;;12.35;3.28;;;16.00;80.80;;;;;;4981830;28;20034;-72
2022/07/28 02:02:11;;;;;;;7.95;3.13;;;16.00;80.70;;;;;;4981993;28;20694;-72
2022/07/28 02:04:39;;;;;;;6.05;2.58;;;16.00;80.60;;;;;;4982681;28;20157;-73
2022/07/28 02:07:09;;;;;;;11.73;3.55;;;16.00;80.80;;;;;;4985924;28;20667;-71
2022/07/28 02:09:36;;;;;;;8.93;2.70;;;15.90;81.00;;;;;;4984506;28;20378;-70
2022/07/28 02:12:03;;;;;;;12.43;2.95;;;15.90;81.00;;;;;;4987425;28;20073;-72
2022/07/28 02:14:31;;;;;;;7.32;3.65;;;15.90;81.00;;;;;;4988731;28;20018;-71
2022/07/28 02:17:06;;;;;;;7.93;3.05;;;15.90;81.00;;;;;;4989482;28;20030;-72
2022/07/28 02:19:34;;;;;;;9.55;4.32;;;15.90;81.10;;;;;;4986705;28;20160;-72
2022/07/28 02:22:02;;;;;;;12.38;4.80;;;15.90;81.00;;;;;;4985278;28;20397;-72
2022/07/28 02:24:30;;;;;;;10.93;4.80;;;15.90;81.10;;;;;;4988767;28;20015;-68
2022/07/28 02:27:06;;;;;;;22.45;6.82;;;15.90;81.70;;;;;;4985213;28;20030;-70
2022/07/28 02:29:43;;;;;;;11.55;5.47;;;15.90;81.00;;;;;;4986000;28;20053;-70
2022/07/28 02:32:18;;;;;;;22.02;6.82;;;15.90;81.00;;;;;;4986768;28;20037;-72
2022/07/28 02:34:48;;;;;;;21.00;8.20;;;15.90;81.30;;;;;;4987585;28;20018;-73
2022/07/28 02:37:16;;;;;;;16.27;7.28;;;15.90;81.10;;;;;;4985405;28;20496;-71
2022/07/28 02:39:47;;;;;;;24.17;9.27;;;15.90;81.00;;;;;;4985205;28;20023;-70
2022/07/28 02:42:17;;;;;;;17.95;8.15;;;15.90;80.90;;;;;;4985772;28;20376;-72
2022/07/28 02:44:56;;;;;;;21.70;7.65;;;15.90;80.90;;;;;;4986991;28;20022;-71
2022/07/28 02:47:27;;;;;;;29.88;10.40;;;15.80;80.70;;;;;;4984267;28;20023;-69
2022/07/28 02:49:56;;;;;;;45.92;30.27;;;15.80;81.00;;;;;;4988051;28;20113;-68
2022/07/28 02:52:24;;;;;;;48.63;23.00;;;15.90;81.50;;;;;;4981685;28;20018;-74
2022/07/28 02:54:52;;;;;;;27.58;13.38;;;15.90;81.70;;;;;;4986006;28;20496;-72
2022/07/28 02:57:21;;;;;;;25.40;7.43;;;15.90;81.10;;;;;;4983074;28;20458;-74
2022/07/28 02:59:49;;;;;;;15.50;6.38;;;15.90;81.20;;;;;;4987638;28;20022;-71
2022/07/28 03:02:21;;;;;;;15.48;5.45;;;15.90;81.30;;;;;;4985534;28;20027;-72
2022/07/28 03:04:58;;;;;;;6.80;3.97;;;15.90;80.40;;;;;;4979884;28;20045;-70
2022/07/28 03:07:29;;;;;;;8.30;3.90;;;15.90;79.90;;;;;;4985097;28;20455;-72
2022/07/28 03:09:56;;;;;;;14.10;3.80;;;15.80;79.40;;;;;;4984467;28;20029;-69
2022/07/28 03:12:22;;;;;;;13.05;5.18;;;15.80;79.00;;;;;;4986864;28;20038;-72
2022/07/28 03:14:49;;;;;;;5.45;3.22;;;15.80;78.70;;;;;;4984913;28;20054;-73
2022/07/28 03:17:16;;;;;;;8.20;3.50;;;15.80;78.50;;;;;;4986358;28;20030;-72
2022/07/28 03:19:43;;;;;;;16.08;4.15;;;15.70;78.10;;;;;;4982625;28;20014;-72
2022/07/28 03:22:10;;;;;;;8.10;3.22;;;15.70;78.00;;;;;;4994290;28;20469;-70
2022/07/28 03:24:40;;;;;;;9.88;2.90;;;15.70;77.60;;;;;;4983372;28;20019;-68
2022/07/28 03:27:33;;;;;;;10.57;2.92;;;15.70;77.30;;;;;;4983198;28;20027;-73
2022/07/28 03:30:24;;;;;;;8.93;3.53;;;15.70;77.20;;;;;;4984665;28;20037;-73
2022/07/28 03:32:56;;;;;;;7.60;2.85;;;15.70;77.10;;;;;;4985806;28;20019;-73
2022/07/28 03:35:23;;;;;;;6.97;3.10;;;15.60;76.90;;;;;;4982229;28;20027;-73
2022/07/28 03:37:56;;;;;;;4.47;2.58;;;15.60;76.50;;;;;;4986035;28;20026;-72
2022/07/28 03:40:30;;;;;;;12.98;3.33;;;15.60;76.30;;;;;;4984195;28;20022;-72
2022/07/28 03:42:58;;;;;;;29.98;3.60;;;15.60;76.30;;;;;;4985712;28;20096;-70
2022/07/28 03:45:25;;;;;;;7.53;2.97;;;15.60;76.50;;;;;;4988190;28;20032;-71
2022/07/28 03:47:57;;;;;;;17.25;3.38;;;15.60;76.70;;;;;;4989933;28;20025;-72
2022/07/28 03:50:29;;;;;;;21.75;7.72;;;15.50;76.70;;;;;;4986154;28;20026;-68
2022/07/28 03:52:56;;;;;;;22.67;11.50;;;15.50;76.90;;;;;;4982544;28;20026;-74
2022/07/28 03:55:23;;;;;;;6.85;3.97;;;15.50;76.40;;;;;;4988550;28;20027;-74
2022/07/28 03:57:50;;;;;;;9.77;3.60;;;15.40;75.10;;;;;;4984614;28;20154;-73
2022/07/28 04:00:18;;;;;;;7.90;3.58;;;15.30;76.40;;;;;;4985189;28;20080;-71
2022/07/28 04:02:45;;;;;;;8.07;3.80;;;15.40;77.50;;;;;;4985721;28;20029;-72
2022/07/28 04:05:17;;;;;;;8.77;2.63;;;15.30;77.60;;;;;;4983646;28;20058;-77
2022/07/28 04:07:44;;;;;;;4.47;3.13;;;15.30;77.50;;;;;;4984953;28;20070;-71
2022/07/28 04:10:13;;;;;;;6.38;3.20;;;15.30;77.30;;;;;;4982825;28;20426;-74
2022/07/28 04:12:55;;;;;;;6.50;3.55;;;15.30;77.20;;;;;;4986720;28;20045;-71
2022/07/28 04:15:23;;;;;;;6.40;2.83;;;15.30;77.30;;;;;;4984861;28;20030;-70
2022/07/28 04:17:51;;;;;;;13.90;4.10;;;15.30;77.30;;;;;;4985702;28;20049;-75
2022/07/28 04:20:20;;;;;;;6.95;2.95;;;15.30;77.20;;;;;;4984265;28;20438;-71
2022/07/28 04:22:47;;;;;;;11.13;3.60;;;15.30;77.00;;;;;;4980674;28;20037;-79
2022/07/28 04:25:15;;;;;;;13.23;4.82;;;15.20;77.00;;;;;;4983112;28;20023;-75
2022/07/28 04:27:43;;;;;;;28.48;7.70;;;15.20;77.70;;;;;;4980394;28;20073;-74
2022/07/28 04:30:12;;;;;;;33.03;6.88;;;15.20;77.90;;;;;;4993410;28;20477;-72
2022/07/28 04:32:40;;;;;;;14.55;4.35;;;15.20;77.80;;;;;;4980003;28;20050;-71
2022/07/28 04:35:07;;;;;;;7.32;3.85;;;15.30;77.60;;;;;;4981237;28;20116;-73
2022/07/28 04:37:34;;;;;;;6.47;3.17;;;15.20;77.10;;;;;;4979868;28;20621;-71
2022/07/28 04:40:01;;;;;;;12.20;4.68;;;15.20;76.90;;;;;;4985795;28;20039;-71
2022/07/28 04:42:28;;;;;;;11.18;4.85;;;15.20;77.20;;;;;;4985958;28;20508;-75
2022/07/28 04:44:54;;;;;;;5.80;2.75;;;15.10;77.30;;;;;;4988829;28;20113;-72
2022/07/28 04:47:23;;;;;;;7.60;2.70;;;15.10;77.20;;;;;;4979592;28;20022;-75
2022/07/28 04:49:50;;;;;;;12.73;3.53;;;15.10;76.90;;;;;;4980995;28;20023;-73
2022/07/28 04:52:17;;;;;;;6.32;3.10;;;15.10;76.90;;;;;;4980720;28;20436;-73
2022/07/28 04:54:44;;;;;;;9.52;3.58;;;15.10;76.90;;;;;;4982933;28;20482;-75
2022/07/28 04:57:10;;;;;;;6.07;2.30;;;15.10;76.60;;;;;;4979931;28;20519;-73
2022/07/28 04:59:37;;;;;;;5.32;2.92;;;15.00;76.60;;;;;;4986884;28;20050;-73
2022/07/28 05:02:04;;;;;;;9.38;3.28;;;15.00;76.90;;;;;;4985318;28;20050;-76
2022/07/28 05:04:30;;;;;;;5.00;2.90;;;15.00;76.90;;;;;;4981618;28;20130;-74
2022/07/28 05:06:57;;;;;;;10.30;2.95;;;15.00;76.70;;;;;;4981014;28;20058;-74
2022/07/28 05:09:24;;;;;;;27.65;3.05;;;15.00;76.50;;;;;;4983740;28;20029;-73
2022/07/28 05:11:51;;;;;;;11.32;3.17;;;15.00;76.60;;;;;;4982892;28;20482;-76
2022/07/28 05:14:17;;;;;;;8.00;3.22;;;15.00;76.70;;;;;;4982079;28;20031;-71
2022/07/28 05:16:44;;;;;;;10.90;3.35;;;15.00;76.70;;;;;;4987835;28;20096;-72
2022/07/28 05:19:11;;;;;;;6.00;3.00;;;14.90;76.70;;;;;;4979130;28;20604;-75
2022/07/28 05:21:37;;;;;;;5.53;3.13;;;14.90;76.70;;;;;;4979303;28;20050;-72
2022/07/28 05:24:04;;;;;;;7.88;3.50;;;14.90;76.80;;;;;;4979028;28;20033;-74
2022/07/28 05:26:31;;;;;;;6.68;3.53;;;14.90;76.80;;;;;;4984417;28;20069;-76
2022/07/28 05:28:57;;;;;;;6.63;4.20;;;14.90;76.90;;;;;;4982709;28;20027;-76
2022/07/28 05:31:24;;;;;;;6.78;4.07;;;14.80;76.80;;;;;;4981757;28;20114;-72
2022/07/28 05:33:50;;;;;;;13.85;5.35;;;14.90;76.80;;;;;;4982449;28;20034;-74
2022/07/28 05:36:17;;;;;;;8.15;4.22;;;14.90;76.60;;;;;;4989268;28;20490;-71
2022/07/28 05:38:43;;;;;;;11.90;4.22;;;14.90;76.60;;;;;;4984045;28;20049;-74
2022/07/28 05:41:10;;;;;;;10.50;3.97;;;14.90;76.80;;;;;;4982550;28;20073;-70
2022/07/28 05:43:37;;;;;;;12.48;5.35;;;14.90;76.70;;;;;;4986566;28;20103;-73
2022/07/28 05:46:04;;;;;;;10.45;3.95;;;14.90;76.60;;;;;;4987215;28;20062;-70
2022/07/28 05:48:31;;;;;;;8.45;3.97;;;14.90;76.50;;;;;;4989599;28;20068;-72
2022/07/28 05:50:57;;;;;;;19.35;4.60;;;14.80;76.70;;;;;;4985674;28;20500;-71
2022/07/28 05:53:24;;;;;;;18.50;4.60;;;14.80;76.70;;;;;;4983321;28;20066;-74
2022/07/28 05:55:51;;;;;;;14.20;3.75;;;14.80;76.80;;;;;;4984516;28;20033;-76
2022/07/28 05:58:21;;;;;;;11.00;3.28;;;14.70;76.80;;;;;;4986320;28;20042;-73
2022/07/28 06:00:48;;;;;;;7.22;3.97;;;14.70;76.90;;;;;;4984898;28;20113;-73
2022/07/28 06:03:15;;;;;;;10.80;3.92;;;14.70;76.90;;;;;;4982962;28;20029;-75
2022/07/28 06:05:41;;;;;;;12.18;4.13;;;14.70;76.70;;;;;;4988046;28;20129;-75
2022/07/28 06:08:08;;;;;;;10.10;3.97;;;14.70;76.40;;;;;;4987987;28;20108;-75
2022/07/28 06:13:20;;;;;;;9.02;3.35;;;14.70;76.80;;;;;;4984226;28;20075;-72
2022/07/28 06:15:47;;;;;;;16.40;4.70;;;14.70;76.60;;;;;;4985421;28;20018;-73
2022/07/28 06:18:15;;;;;;;6.20;2.60;;;14.70;76.50;;;;;;4984387;28;20034;-71
2022/07/28 06:20:41;;;;;;;12.32;3.60;;;14.70;77.20;;;;;;4988733;28;20533;-74
2022/07/28 06:23:08;;;;;;;12.52;3.88;;;14.70;77.20;;;;;;4988802;28;20108;-74
2022/07/28 06:25:34;;;;;;;6.00;3.22;;;14.70;77.70;;;;;;4990035;28;20034;-74
2022/07/28 06:28:01;;;;;;;8.40;3.10;;;14.70;77.80;;;;;;4984858;28;20026;-71
2022/07/28 06:30:29;;;;;;;4.75;2.33;;;14.70;78.00;;;;;;4989180;28;20023;-74
2022/07/28 06:32:56;;;;;;;4.90;2.78;;;14.70;78.10;;;;;;4988071;28;20477;-74
2022/07/28 06:35:23;;;;;;;8.05;3.80;;;14.80;78.20;;;;;;4980596;28;20106;-73
2022/07/28 06:37:51;;;;;;;6.18;2.90;;;14.80;78.30;;;;;;4985291;28;20039;-73
2022/07/28 06:40:19;;;;;;;9.07;3.67;;;14.80;78.40;;;;;;4985078;28;20030;-75
2022/07/28 06:42:46;;;;;;;6.43;2.90;;;14.80;78.50;;;;;;4986252;28;20061;-74
2022/07/28 06:45:14;;;;;;;13.05;4.28;;;14.80;78.70;;;;;;4989154;28;20093;-74
2022/07/28 06:47:40;;;;;;;11.23;5.40;;;14.80;78.80;;;;;;4983975;28;20025;-75
2022/07/28 06:50:08;;;;;;;10.38;5.20;;;14.80;78.70;;;;;;4982840;28;20400;-68
2022/07/28 06:52:35;;;;;;;14.80;5.18;;;14.90;78.90;;;;;;4988265;28;20019;-72
2022/07/28 06:55:03;;;;;;;11.65;6.10;;;14.90;79.00;;;;;;4986039;28;20480;-74
2022/07/28 06:57:31;;;;;;;13.32;5.47;;;14.90;78.90;;;;;;4983269;28;20046;-72
2022/07/28 06:59:57;;;;;;;11.48;5.50;;;14.90;79.00;;;;;;4987379;28;20355;-75
2022/07/28 07:02:24;;;;;;;21.85;6.45;;;15.00;79.10;;;;;;4988146;28;20080;-75
2022/07/28 07:04:51;;;;;;;24.00;7.85;;;15.00;79.10;;;;;;4987637;28;20031;-75
2022/07/28 07:07:17;;;;;;;15.82;4.93;;;15.00;79.30;;;;;;4981974;28;20520;-72
2022/07/28 07:09:44;;;;;;;20.20;5.82;;;15.10;79.40;;;;;;4984686;28;20519;-71
2022/07/28 07:12:10;;;;;;;28.45;6.57;;;15.10;79.40;;;;;;4985941;28;20407;-73
2022/07/28 07:14:37;;;;;;;19.52;6.03;;;15.10;79.50;;;;;;4985178;28;20148;-73
2022/07/28 07:17:03;;;;;;;22.95;6.28;;;15.10;79.70;;;;;;4984741;28;20877;-75
2022/07/28 07:19:30;;;;;;;24.17;6.40;;;15.10;79.90;;;;;;4982467;28;20034;-74
2022/07/28 07:21:56;;;;;;;18.80;5.95;;;15.20;80.20;;;;;;4984228;28;20026;-72
2022/07/28 07:24:23;;;;;;;22.40;5.70;;;15.20;80.40;;;;;;4985307;28;20049;-75
2022/07/28 07:26:49;;;;;;;25.83;5.70;;;15.20;80.60;;;;;;4983213;28;20023;-73
2022/07/28 07:29:16;;;;;;;16.60;6.00;;;15.20;80.70;;;;;;4986159;28;20023;-75
2022/07/28 07:31:42;;;;;;;22.42;6.40;;;15.30;80.70;;;;;;4984974;28;20041;-71
2022/07/28 07:34:09;;;;;;;26.00;7.22;;;15.30;80.70;;;;;;4985285;28;20034;-72
2022/07/28 07:36:35;;;;;;;30.48;7.82;;;15.30;80.80;;;;;;4983100;28;20023;-72
2022/07/28 07:39:02;;;;;;;33.97;6.90;;;15.30;80.90;;;;;;4984577;28;20042;-71
2022/07/28 07:41:28;;;;;;;27.50;7.90;;;15.40;81.10;;;;;;4983253;28;20041;-74
2022/07/28 07:43:55;;;;;;;31.75;7.78;;;15.40;80.90;;;;;;4983307;28;20105;-74
2022/07/28 07:46:21;;;;;;;30.35;7.45;;;15.40;80.70;;;;;;4980447;28;20026;-74
2022/07/28 07:48:47;;;;;;;21.15;6.70;;;15.40;80.70;;;;;;4984788;28;20384;-75
2022/07/28 07:51:14;;;;;;;28.67;6.13;;;15.40;80.70;;;;;;4980840;28;20416;-74
2022/07/28 07:53:41;;;;;;;24.05;7.95;;;15.50;80.80;;;;;;4986394;28;20496;-74
2022/07/28 07:56:07;;;;;;;21.73;6.45;;;15.50;80.80;;;;;;4983572;28;20050;-75
2022/07/28 07:58:33;;;;;;;14.85;6.20;;;15.60;80.80;;;;;;4984436;28;20117;-76
2022/07/28 08:01:00;;;;;;;15.77;5.90;;;15.60;80.90;;;;;;4988032;28;20053;-74
2022/07/28 08:03:26;;;;;;;18.60;6.10;;;15.60;81.00;;;;;;4985646;28;20069;-74
2022/07/28 08:05:55;;;;;;;17.30;7.15;;;15.70;81.00;;;;;;4984020;28;20493;-74
2022/07/28 08:08:22;;;;;;;18.20;7.35;;;15.70;80.90;;;;;;4981657;28;20038;-73
2022/07/28 08:10:49;;;;;;;11.32;6.47;;;15.70;80.80;;;;;;4986646;28;20101;-75
2022/07/28 08:13:19;;;;;;;13.70;7.25;;;15.70;80.60;;;;;;4981722;28;20035;-75
2022/07/28 08:15:45;;;;;;;14.02;7.47;;;15.80;81.20;;;;;;4986163;28;20018;-71
2022/07/28 08:18:12;;;;;;;17.83;8.75;;;15.80;80.50;;;;;;4983659;28;20030;-74
2022/07/28 08:20:38;;;;;;;22.90;9.65;;;15.80;80.30;;;;;;4983322;28;20121;-71
2022/07/28 08:23:05;;;;;;;21.75;9.20;;;15.90;80.40;;;;;;4983451;28;20034;-73
2022/07/28 08:25:36;;;;;;;23.90;9.57;;;15.90;80.80;;;;;;4981086;28;20031;-73
2022/07/28 08:28:03;;;;;;;20.17;10.18;;;15.90;80.90;;;;;;4984133;28;20045;-74
2022/07/28 08:30:29;;;;;;;20.55;9.45;;;16.00;81.00;;;;;;4985037;28;20025;-75
2022/07/28 08:32:56;;;;;;;18.50;9.15;;;16.10;81.00;;;;;;4984098;28;20473;-70
2022/07/28 08:35:22;;;;;;;15.23;7.78;;;16.10;81.00;;;;;;4981325;28;20368;-72
2022/07/28 08:37:49;;;;;;;16.38;8.77;;;16.10;81.00;;;;;;4982423;28;20034;-70
2022/07/28 08:40:15;;;;;;;14.05;7.80;;;16.20;81.20;;;;;;4983879;28;20653;-74
2022/07/28 08:43:26;;;;;;;11.73;6.85;;;16.20;81.10;;;;;;4986702;28;20092;-75
2022/07/28 08:45:53;;;;;;;13.20;7.47;;;16.30;81.20;;;;;;4982862;28;20050;-73
2022/07/28 08:48:22;;;;;;;15.00;7.72;;;16.30;81.20;;;;;;4980702;28;20038;-75
2022/07/28 08:50:50;;;;;;;16.02;8.50;;;16.40;81.30;;;;;;4983700;28;20090;-74
2022/07/28 08:53:20;;;;;;;16.17;8.73;;;16.50;81.20;;;;;;4981278;28;20027;-75
2022/07/28 08:55:48;;;;;;;23.17;9.50;;;16.50;81.00;;;;;;4986382;28;20018;-74
2022/07/28 08:58:16;;;;;;;19.02;9.65;;;16.50;80.90;;;;;;4978857;28;20038;-73
2022/07/28 09:00:43;;;;;;;18.20;9.32;;;16.70;80.90;;;;;;4983168;28;20090;-73
2022/07/28 09:03:12;;;;;;;16.92;9.20;;;16.70;80.80;;;;;;4984341;28;20027;-75
2022/07/28 09:05:41;;;;;;;17.65;8.88;;;16.70;80.60;;;;;;4982434;28;20038;-75
2022/07/28 09:08:07;;;;;;;15.05;7.25;;;16.80;80.30;;;;;;4983842;28;20110;-75
2022/07/28 09:10:34;;;;;;;9.48;5.15;;;16.90;80.10;;;;;;4979705;28;20026;-75
2022/07/28 09:13:00;;;;;;;16.55;5.07;;;17.00;79.20;;;;;;4986413;28;20060;-74
2022/07/28 09:15:27;;;;;;;11.43;4.60;;;17.00;77.70;;;;;;4986104;28;20022;-74
2022/07/28 09:17:54;;;;;;;20.45;6.47;;;17.10;76.50;;;;;;4984012;28;20030;-73
2022/07/28 09:20:21;;;;;;;10.38;4.05;;;17.20;76.50;;;;;;4983206;28;20015;-73
2022/07/28 09:23:00;;;;;;;19.33;4.65;;;17.30;76.40;;;;;;4982182;28;20030;-73
2022/07/28 09:25:28;;;;;;;10.35;3.80;;;17.40;75.90;;;;;;4981309;28;20058;-70
2022/07/28 09:27:55;;;;;;;11.55;5.40;;;17.50;75.60;;;;;;4986086;28;20077;-73
2022/07/28 09:30:33;;;;;;;6.07;4.07;;;17.60;75.40;;;;;;4979859;28;20030;-73
2022/07/28 09:33:18;;;;;;;11.48;4.82;;;17.60;75.10;;;;;;4982651;28;20019;-75
2022/07/28 09:35:53;;;;;;;10.77;7.03;;;17.70;75.20;;;;;;4977926;28;20026;-75
2022/07/28 09:38:21;;;;;;;15.25;5.80;;;17.80;75.60;;;;;;4983610;28;20081;-74
2022/07/28 09:41:01;;;;;;;6.60;3.10;;;17.90;75.40;;;;;;4982686;28;20030;-73
2022/07/28 09:43:54;;;;;;;8.02;3.40;;;17.90;74.70;;;;;;4982964;28;20113;-75
2022/07/28 09:46:23;;;;;;;9.52;3.10;;;18.00;74.00;;;;;;4982731;28;20054;-72
2022/07/28 09:48:49;;;;;;;6.68;3.47;;;18.10;73.40;;;;;;4980391;28;20015;-73
2022/07/28 09:51:18;;;;;;;5.50;2.72;;;18.10;72.20;;;;;;4984733;28;20058;-73
2022/07/28 09:53:44;;;;;;;6.90;3.28;;;18.20;71.00;;;;;;4998030;28;20031;-70
2022/07/28 09:56:12;;;;;;;6.38;2.88;;;18.30;71.10;;;;;;4984013;28;20381;-73
2022/07/28 09:58:39;;;;;;;6.32;3.45;;;18.40;71.40;;;;;;4982411;28;20034;-74
2022/07/28 10:01:08;;;;;;;12.18;4.50;;;18.40;71.30;;;;;;4979187;28;20018;-74
2022/07/28 10:03:36;;;;;;;12.85;3.03;;;18.50;70.80;;;;;;4984761;28;20493;-74
2022/07/28 10:06:06;;;;;;;7.07;2.75;;;18.60;69.80;;;;;;4984295;28;20374;-74
2022/07/28 10:08:46;;;;;;;5.40;2.60;;;18.60;69.00;;;;;;4981784;28;20049;-71
2022/07/28 10:11:19;;;;;;;12.18;3.00;;;18.80;68.90;;;;;;4978608;28;20580;-73
2022/07/28 10:14:12;;;;;;;6.30;3.08;;;18.80;69.00;;;;;;4979902;28;20022;-74
2022/07/28 10:16:52;;;;;;;5.85;2.55;;;18.90;69.30;;;;;;4981137;28;20559;-74
2022/07/28 10:19:19;;;;;;;6.50;3.65;;;19.00;69.10;;;;;;4982248;28;20553;-74
2022/07/28 10:21:47;;;;;;;7.03;2.67;;;19.10;68.80;;;;;;4975921;28;20015;-74
2022/07/28 10:24:20;;;;;;;5.28;3.28;;;19.10;68.00;;;;;;4985042;28;20104;-75
2022/07/28 10:26:47;;;;;;;5.50;2.78;;;19.20;67.40;;;;;;4981353;28;20350;-75
2022/07/28 10:29:21;;;;;;;4.70;2.67;;;19.30;67.80;;;;;;4983839;28;20030;-75
2022/07/28 10:32:05;;;;;;;7.35;3.85;;;19.30;67.20;;;;;;4985264;28;20030;-73
2022/07/28 10:34:39;;;;;;;4.35;2.58;;;19.40;66.50;;;;;;4986655;28;20022;-73
2022/07/28 10:37:11;;;;;;;8.02;3.28;;;19.50;66.40;;;;;;4986669;28;20026;-73
2022/07/28 10:39:51;;;;;;;12.20;2.92;;;19.60;67.20;;;;;;4982611;28;20054;-74
2022/07/28 10:42:19;;;;;;;6.47;2.67;;;19.70;67.70;;;;;;4983929;28;20034;-73
2022/07/28 10:44:46;;;;;;;4.47;2.78;;;19.70;67.00;;;;;;4989626;28;20088;-72
2022/07/28 10:47:13;;;;;;;5.05;2.80;;;19.80;66.90;;;;;;4986498;28;20026;-73
2022/07/28 10:49:41;;;;;;;10.65;2.85;;;19.90;67.30;;;;;;4984417;28;20022;-73
2022/07/28 10:52:08;;;;;;;9.57;3.92;;;20.00;67.30;;;;;;4981568;28;20102;-75
2022/07/28 10:55:07;;;;;;;8.10;3.67;;;20.00;67.20;;;;;;4986560;28;20101;-71
2022/07/28 10:57:40;;;;;;;9.75;2.97;;;20.10;67.10;;;;;;4942527;28;20096;-75
2022/07/28 11:00:16;;;;;;;15.65;3.38;;;20.20;67.20;;;;;;4988502;28;20374;-70
2022/07/28 11:02:51;;;;;;;4.07;2.42;;;20.30;66.90;;;;;;4990519;28;20038;-72
2022/07/28 11:05:37;;;;;;;4.88;2.38;;;20.30;66.50;;;;;;4987204;28;20026;-74
2022/07/28 11:08:05;;;;;;;3.80;2.42;;;20.40;66.30;;;;;;4984726;28;20603;-72
2022/07/28 11:10:49;;;;;;;8.45;2.70;;;20.50;66.40;;;;;;4986343;28;20031;-73
2022/07/28 11:13:34;;;;;;;6.35;3.22;;;20.60;65.80;;;;;;4988854;28;20031;-74
2022/07/28 11:16:13;;;;;;;5.00;3.22;;;20.60;64.80;;;;;;4985055;28;20532;-72
2022/07/28 11:19:05;;;;;;;14.55;3.55;;;20.70;64.20;;;;;;4987334;28;20038;-72
2022/07/28 11:21:32;;;;;;;14.45;3.22;;;20.80;63.20;;;;;;4976751;28;20124;-72
2022/07/28 11:23:58;;;;;;;10.05;3.05;;;20.90;63.50;;;;;;4985801;28;20023;-71
2022/07/28 11:26:26;;;;;;;9.15;2.80;;;21.00;63.70;;;;;;4983928;28;20031;-72
2022/07/28 11:29:02;;;;;;;13.63;4.10;;;21.00;62.00;;;;;;4989281;28;20034;-70
2022/07/28 11:31:44;;;;;;;8.23;4.30;;;21.10;62.60;;;;;;4982805;28;20026;-75
2022/07/28 11:34:16;;;;;;;9.07;3.15;;;21.20;61.60;;;;;;4983352;28;20022;-71
2022/07/28 11:37:03;;;;;;;5.35;3.28;;;21.10;60.20;;;;;;4985785;28;20034;-73
2022/07/28 11:39:32;;;;;;;14.55;4.25;;;21.10;59.60;;;;;;4983638;28;20572;-72
2022/07/28 11:41:58;;;;;;;6.32;3.30;;;21.10;58.80;;;;;;4984897;28;20022;-75
2022/07/28 11:44:30;;;;;;;11.40;4.05;;;21.10;58.90;;;;;;4982488;28;20019;-75
2022/07/28 11:47:23;;;;;;;6.32;3.30;;;21.10;59.20;;;;;;4981552;28;21032;-74
2022/07/28 11:50:15;;;;;;;13.05;4.47;;;21.10;59.60;;;;;;4978282;28;20052;-72
2022/07/28 11:52:58;;;;;;;13.60;3.97;;;21.10;59.50;;;;;;4979541;28;20034;-73
2022/07/28 11:55:25;;;;;;;37.42;6.63;;;21.10;59.60;;;;;;4984290;28;20117;-72
2022/07/28 11:57:51;;;;;;;13.57;4.43;;;21.20;60.00;;;;;;4983465;28;20500;-72
2022/07/28 12:00:24;;;;;;;10.15;3.10;;;21.20;59.10;;;;;;4983367;28;20038;-74
2022/07/28 12:02:51;;;;;;;11.02;3.25;;;21.20;58.00;;;;;;4991030;28;20130;-75
2022/07/28 12:05:21;;;;;;;9.32;3.30;;;21.20;57.30;;;;;;4982075;28;20572;-75
2022/07/28 12:07:51;;;;;;;6.40;2.60;;;21.10;56.50;;;;;;4988573;28;20018;-73
2022/07/28 12:10:35;;;;;;;4.32;2.33;;;21.10;55.80;;;;;;4983660;28;20031;-75
2022/07/28 12:13:04;;;;;;;5.97;2.40;;;21.10;55.30;;;;;;4986719;28;20019;-73
2022/07/28 12:15:31;;;;;;;6.60;2.15;;;21.10;55.00;;;;;;4984175;28;20041;-74
2022/07/28 12:17:58;;;;;;;9.82;2.65;;;21.10;54.90;;;;;;4982734;28;20066;-74
2022/07/28 12:20:30;;;;;;;5.43;2.42;;;21.10;55.20;;;;;;4982556;28;20030;-73
2022/07/28 12:23:05;;;;;;;4.00;2.80;;;21.00;55.10;;;;;;4987882;28;20061;-74
2022/07/28 12:25:51;;;;;;;7.63;2.65;;;21.00;55.40;;;;;;4979245;28;20026;-71
2022/07/28 12:28:24;;;;;;;5.80;3.17;;;21.00;56.00;;;;;;4982519;28;20448;-73
2022/07/28 12:30:51;;;;;;;10.10;4.30;;;21.10;56.90;;;;;;4999799;28;20038;-74
2022/07/28 12:33:25;;;;;;;8.38;3.95;;;21.10;57.10;;;;;;4986104;28;20026;-74
2022/07/28 12:35:55;;;;;;;7.87;3.13;;;21.10;57.20;;;;;;4996599;28;20026;-75
2022/07/28 12:38:23;;;;;;;7.10;3.58;;;21.10;56.90;;;;;;4982190;28;20031;-74
2022/07/28 12:40:52;;;;;;;6.80;3.40;;;21.00;56.90;;;;;;4983466;28;20060;-74
2022/07/28 12:43:20;;;;;;;5.78;2.78;;;21.00;57.10;;;;;;4983350;28;20022;-75
2022/07/28 12:45:47;;;;;;;9.63;3.78;;;21.10;57.20;;;;;;4983811;28;20102;-74
2022/07/28 12:48:18;;;;;;;10.38;4.80;;;21.00;57.50;;;;;;4974995;28;20042;-72
2022/07/28 12:50:46;;;;;;;8.57;3.55;;;21.00;57.70;;;;;;4981553;28;20027;-71
2022/07/28 12:53:14;;;;;;;7.25;3.03;;;21.00;57.50;;;;;;4979317;28;20031;-74
2022/07/28 12:55:44;;;;;;;10.95;3.53;;;21.00;57.80;;;;;;4987879;28;20130;-75
2022/07/28 12:58:28;;;;;;;10.43;3.80;;;21.00;58.20;;;;;;4980603;28;21947;-74